Time;durP1;ratioP1;P1;durP2;ratioP2;P2;SDS_P1;SDS_P2;PMS_P1;PMS_P2;Temp;Humidity;BMP_temperature;BMP_pressure;BME280_temperature;BME280_humidity;BME280_pressure;Samples;Min_cycle;Max_cycle;Signal;HPM_P1;HPM_P2
2023/07/11 00:01:41;;;;;;;5.65;2.30;;;22.20;99.90;;;;;;5093320;28;20312;-51
2023/07/11 00:04:07;;;;;;;3.95;2.50;;;22.10;99.90;;;;;;5092675;28;20211;-51
2023/07/11 00:06:32;;;;;;;6.53;2.10;;;22.00;99.90;;;;;;5093543;28;20173;-51
2023/07/11 00:08:58;;;;;;;5.90;2.10;;;21.80;99.90;;;;;;5093559;28;20230;-51
2023/07/11 00:11:24;;;;;;;5.35;2.38;;;21.80;99.90;;;;;;5074974;28;20219;-51
2023/07/11 00:13:50;;;;;;;6.30;2.72;;;21.80;99.90;;;;;;5093391;28;20216;-51
2023/07/11 00:16:17;;;;;;;4.13;2.38;;;21.80;99.90;;;;;;5093029;28;20190;-51
2023/07/11 00:18:43;;;;;;;4.95;2.25;;;21.80;99.90;;;;;;5092563;28;20176;-51
2023/07/11 00:21:09;;;;;;;3.92;2.47;;;21.70;99.90;;;;;;5093002;28;20204;-51
2023/07/11 00:23:34;;;;;;;6.28;2.35;;;21.80;99.90;;;;;;5092902;28;20237;-51
2023/07/11 00:26:00;;;;;;;7.45;2.40;;;21.80;99.90;;;;;;5093395;28;20648;-52
2023/07/11 00:28:25;;;;;;;5.90;2.55;;;21.80;99.90;;;;;;5081724;28;20228;-51
2023/07/11 00:30:51;;;;;;;6.40;2.55;;;21.90;99.90;;;;;;5072543;28;20166;-51
2023/07/11 00:33:17;;;;;;;4.47;2.10;;;21.80;99.90;;;;;;5072466;28;20193;-51
2023/07/11 00:35:50;;;;;;;8.05;2.65;;;21.70;99.90;;;;;;5072460;28;20256;-51
2023/07/11 00:38:16;;;;;;;4.80;2.22;;;21.70;99.90;;;;;;5072410;28;20244;-51
2023/07/11 00:40:43;;;;;;;4.72;2.65;;;21.70;99.90;;;;;;5072356;28;20244;-51
2023/07/11 00:43:12;;;;;;;5.57;2.30;;;21.70;99.90;;;;;;5072237;28;20661;-50
2023/07/11 00:46:05;;;;;;;7.50;2.28;;;21.80;99.90;;;;;;5072501;28;20174;-50
2023/07/11 00:48:38;;;;;;;3.90;2.20;;;21.70;99.90;;;;;;5072885;28;20169;-51
2023/07/11 00:51:06;;;;;;;6.55;2.35;;;21.70;99.90;;;;;;5072179;28;20162;-51
2023/07/11 00:53:32;;;;;;;2.70;1.83;;;21.70;99.90;;;;;;5072659;28;20162;-52
2023/07/11 00:56:04;;;;;;;6.72;2.42;;;21.70;99.90;;;;;;5072443;28;20553;-51
2023/07/11 00:58:31;;;;;;;5.47;2.40;;;21.60;99.90;;;;;;5072615;28;20170;-51
2023/07/11 01:00:58;;;;;;;8.18;2.53;;;21.50;99.90;;;;;;5071928;28;20696;-51
2023/07/11 01:03:23;;;;;;;9.77;2.70;;;21.40;99.90;;;;;;5071915;28;20285;-51
2023/07/11 01:05:50;;;;;;;4.22;2.50;;;21.30;99.90;;;;;;5072222;28;20686;-51
2023/07/11 01:08:15;;;;;;;6.20;2.50;;;21.30;99.90;;;;;;5071921;28;20165;-51
2023/07/11 01:10:41;;;;;;;7.20;2.65;;;21.30;99.90;;;;;;5071665;28;20347;-51
2023/07/11 01:13:09;;;;;;;6.35;2.47;;;21.40;99.90;;;;;;5071824;28;20166;-51
2023/07/11 01:15:35;;;;;;;4.75;2.17;;;21.40;99.90;;;;;;5071812;28;20174;-51
2023/07/11 01:18:00;;;;;;;3.58;2.22;;;21.40;99.90;;;;;;5072244;28;20177;-51
2023/07/11 01:20:26;;;;;;;6.85;2.50;;;21.40;99.90;;;;;;5071725;28;20245;-51
2023/07/11 01:22:52;;;;;;;6.15;2.25;;;21.30;99.90;;;;;;5071653;28;20679;-51
2023/07/11 01:25:18;;;;;;;4.80;2.58;;;21.20;99.90;;;;;;5071923;28;20205;-51
2023/07/11 01:27:46;;;;;;;6.75;2.45;;;21.10;99.90;;;;;;5071706;28;20173;-51
2023/07/11 01:30:14;;;;;;;5.60;2.38;;;21.10;99.90;;;;;;5070635;28;20178;-51
2023/07/11 01:32:40;;;;;;;5.15;2.30;;;21.10;99.90;;;;;;5071401;28;20166;-51
2023/07/11 01:35:06;;;;;;;5.70;2.50;;;21.10;99.90;;;;;;5071635;28;20170;-51
2023/07/11 01:37:32;;;;;;;6.13;2.92;;;21.10;99.90;;;;;;5072007;28;20169;-51
2023/07/11 01:39:57;;;;;;;4.47;2.92;;;21.10;99.90;;;;;;5071829;28;20166;-51
2023/07/11 01:42:25;;;;;;;4.40;2.08;;;21.10;99.90;;;;;;5071502;28;20170;-51
2023/07/11 01:44:51;;;;;;;6.57;2.88;;;21.10;99.90;;;;;;5070815;28;20271;-51
2023/07/11 01:47:16;;;;;;;11.82;2.40;;;21.10;99.90;;;;;;5071415;28;20216;-51
2023/07/11 01:49:42;;;;;;;4.05;2.00;;;21.10;99.90;;;;;;5071424;28;20170;-51
2023/07/11 01:52:19;;;;;;;3.90;2.42;;;21.10;99.90;;;;;;5071485;28;20224;-51
2023/07/11 01:54:45;;;;;;;3.55;2.13;;;21.00;99.90;;;;;;5071340;28;20166;-51
2023/07/11 01:57:11;;;;;;;4.55;2.50;;;21.00;99.90;;;;;;5071451;28;20162;-51
2023/07/11 01:59:37;;;;;;;4.68;2.55;;;21.00;99.90;;;;;;5070906;28;20629;-51
2023/07/11 02:02:03;;;;;;;5.72;2.45;;;21.10;99.90;;;;;;5071352;28;20166;-49
2023/07/11 02:04:29;;;;;;;9.50;2.40;;;21.20;99.90;;;;;;5071755;28;20700;-49
2023/07/11 02:06:55;;;;;;;3.65;2.58;;;21.10;99.90;;;;;;5071249;28;20193;-49
2023/07/11 02:09:21;;;;;;;5.90;2.70;;;21.20;99.90;;;;;;5071266;28;20166;-50
2023/07/11 02:11:47;;;;;;;5.57;2.33;;;21.10;99.90;;;;;;5071132;28;20170;-49
2023/07/11 02:14:18;;;;;;;6.07;2.45;;;21.10;99.90;;;;;;5071163;28;20174;-52
2023/07/11 02:16:44;;;;;;;4.20;2.30;;;21.10;99.90;;;;;;5071043;28;20228;-50
2023/07/11 02:19:11;;;;;;;4.15;2.30;;;21.10;99.90;;;;;;5071145;28;20178;-50
2023/07/11 02:21:37;;;;;;;7.38;2.50;;;21.00;99.90;;;;;;5071151;28;20193;-50
2023/07/11 02:24:04;;;;;;;6.15;2.70;;;21.00;99.90;;;;;;5071250;28;20217;-50
2023/07/11 02:26:29;;;;;;;5.68;2.20;;;21.10;99.90;;;;;;5071429;28;20658;-50
2023/07/11 02:28:55;;;;;;;5.53;2.50;;;21.00;99.90;;;;;;5070971;28;20178;-50
2023/07/11 02:31:20;;;;;;;3.67;2.55;;;21.00;99.90;;;;;;5071007;28;20197;-50
2023/07/11 02:33:49;;;;;;;5.78;2.28;;;20.90;99.90;;;;;;5070935;28;20181;-50
2023/07/11 02:36:14;;;;;;;4.53;2.30;;;20.80;99.90;;;;;;5070987;28;20223;-50
2023/07/11 02:38:40;;;;;;;4.47;2.55;;;20.80;99.90;;;;;;5070982;28;20170;-50
2023/07/11 02:41:06;;;;;;;4.38;2.58;;;20.80;99.90;;;;;;5071601;28;20169;-50
2023/07/11 02:43:31;;;;;;;5.72;2.58;;;20.80;99.90;;;;;;5075008;28;20205;-50
2023/07/11 02:45:57;;;;;;;8.35;2.75;;;23.20;99.90;;;;;;5057268;28;20174;-50
2023/07/11 02:48:25;;;;;;;5.43;2.85;;;20.80;99.90;;;;;;5074535;28;20243;-50
2023/07/11 02:50:50;;;;;;;6.80;2.88;;;20.80;99.90;;;;;;5074340;28;20177;-50
2023/07/11 02:53:16;;;;;;;6.03;2.60;;;20.80;99.90;;;;;;5074396;28;20165;-50
2023/07/11 02:55:41;;;;;;;7.43;3.08;;;20.80;99.90;;;;;;5074416;28;20507;-50
2023/07/11 02:58:07;;;;;;;4.57;2.45;;;20.70;99.90;;;;;;5074322;28;20280;-50
2023/07/11 03:00:33;;;;;;;8.43;3.13;;;20.70;99.90;;;;;;5074216;28;20178;-50
2023/07/11 03:02:59;;;;;;;4.85;2.88;;;20.60;99.90;;;;;;5074713;28;20239;-50
2023/07/11 03:05:24;;;;;;;4.70;2.70;;;20.70;99.90;;;;;;5074142;28;20169;-50
2023/07/11 03:07:50;;;;;;;4.85;2.58;;;20.60;99.90;;;;;;5074216;28;20528;-50
2023/07/11 03:10:15;;;;;;;4.85;2.40;;;20.60;99.90;;;;;;5073986;28;20716;-49
2023/07/11 03:12:41;;;;;;;4.72;2.40;;;20.60;99.90;;;;;;5074112;28;20204;-50
2023/07/11 03:15:07;;;;;;;4.97;2.78;;;20.60;99.90;;;;;;5074056;28;20177;-49
2023/07/11 03:17:33;;;;;;;4.65;2.60;;;20.60;99.90;;;;;;5074083;28;20215;-49
2023/07/11 03:19:59;;;;;;;6.53;3.20;;;20.50;99.90;;;;;;5074048;28;20261;-50
2023/07/11 03:22:24;;;;;;;3.03;2.63;;;20.50;99.90;;;;;;5073947;28;20162;-50
2023/07/11 03:24:50;;;;;;;4.38;2.85;;;20.40;99.90;;;;;;5073831;28;20236;-50
2023/07/11 03:27:15;;;;;;;5.25;2.97;;;20.40;99.90;;;;;;5073918;28;20158;-49
2023/07/11 03:29:41;;;;;;;6.35;2.55;;;20.40;99.90;;;;;;5073743;28;20221;-50
2023/07/11 03:32:09;;;;;;;5.28;2.55;;;20.30;99.90;;;;;;5073821;28;20166;-50
2023/07/11 03:34:35;;;;;;;4.05;2.42;;;20.30;99.90;;;;;;5073688;28;20162;-50
2023/07/11 03:37:00;;;;;;;7.18;2.60;;;20.30;99.90;;;;;;5073951;28;20170;-50
2023/07/11 03:39:26;;;;;;;6.07;2.65;;;20.30;99.90;;;;;;5074105;28;20169;-49
2023/07/11 03:41:52;;;;;;;6.57;2.50;;;20.30;99.90;;;;;;5073807;28;20170;-50
2023/07/11 03:44:17;;;;;;;3.30;2.58;;;20.30;99.90;;;;;;5073413;28;20237;-50
2023/07/11 03:46:43;;;;;;;3.03;2.47;;;20.30;99.90;;;;;;5073229;28;20640;-50
2023/07/11 03:49:09;;;;;;;3.47;2.53;;;20.30;99.90;;;;;;5073230;28;20669;-49
2023/07/11 03:51:35;;;;;;;4.07;2.38;;;20.30;99.90;;;;;;5073641;28;20166;-50
2023/07/11 03:54:00;;;;;;;6.07;2.72;;;20.30;99.90;;;;;;5072892;28;20181;-49
2023/07/11 03:56:27;;;;;;;5.97;2.80;;;20.30;99.90;;;;;;5073909;28;20265;-49
2023/07/11 03:58:53;;;;;;;4.88;2.90;;;20.40;99.90;;;;;;5073821;28;20173;-49
2023/07/11 04:01:19;;;;;;;3.88;2.40;;;20.40;99.90;;;;;;5054893;28;20174;-49
2023/07/11 04:03:45;;;;;;;6.95;2.85;;;20.40;99.90;;;;;;5073255;28;20206;-49
2023/07/11 04:06:11;;;;;;;3.67;2.30;;;20.50;99.90;;;;;;5073137;28;20170;-48
2023/07/11 04:08:36;;;;;;;3.55;2.35;;;20.50;99.90;;;;;;5072996;28;20703;-49
2023/07/11 04:11:02;;;;;;;4.18;2.40;;;20.50;99.90;;;;;;5072854;28;20244;-49
2023/07/11 04:13:28;;;;;;;5.32;2.80;;;20.50;99.90;;;;;;5073297;28;20181;-49
2023/07/11 04:15:53;;;;;;;5.18;2.60;;;20.50;99.90;;;;;;5072813;28;20173;-48
2023/07/11 04:18:19;;;;;;;3.50;2.63;;;20.60;99.90;;;;;;5072620;28;20158;-48
2023/07/11 04:20:48;;;;;;;3.88;2.63;;;20.50;99.90;;;;;;5072747;28;20174;-49
2023/07/11 04:23:14;;;;;;;4.95;2.70;;;20.50;99.90;;;;;;5072580;28;20201;-49
2023/07/11 04:25:40;;;;;;;7.70;2.88;;;20.50;99.90;;;;;;5072687;28;20174;-49
2023/07/11 04:28:06;;;;;;;5.20;2.40;;;20.60;99.90;;;;;;5072071;28;20166;-49
2023/07/11 04:30:32;;;;;;;5.93;2.30;;;20.60;99.90;;;;;;5072806;28;20551;-49
2023/07/11 04:32:57;;;;;;;4.40;2.40;;;20.60;99.90;;;;;;5072978;28;20249;-49
2023/07/11 04:35:23;;;;;;;5.65;2.90;;;20.60;99.90;;;;;;5072432;28;20630;-49
2023/07/11 04:37:49;;;;;;;5.10;2.75;;;20.70;99.90;;;;;;5072416;28;20174;-49
2023/07/11 04:40:15;;;;;;;5.45;2.30;;;20.80;99.90;;;;;;5072407;28;20243;-49
2023/07/11 04:42:41;;;;;;;4.57;2.63;;;21.00;99.90;;;;;;5072294;28;20211;-48
2023/07/11 04:45:07;;;;;;;8.18;2.50;;;21.30;99.90;;;;;;5072195;28;20202;-49
2023/07/11 04:47:33;;;;;;;4.38;2.58;;;21.30;99.90;;;;;;5072250;28;20307;-48
2023/07/11 04:49:59;;;;;;;4.70;2.83;;;21.40;99.90;;;;;;5072912;28;20225;-48
2023/07/11 04:52:25;;;;;;;5.22;2.75;;;21.60;99.90;;;;;;5054193;28;20177;-48
2023/07/11 04:54:51;;;;;;;6.55;2.67;;;21.80;99.90;;;;;;5072067;28;20230;-48
2023/07/11 04:57:16;;;;;;;5.55;2.65;;;21.80;99.90;;;;;;5072169;28;20249;-49
2023/07/11 04:59:42;;;;;;;6.53;3.22;;;21.90;99.90;;;;;;5072027;28;20177;-49
2023/07/11 05:02:07;;;;;;;4.82;3.25;;;22.00;99.90;;;;;;5054061;28;20170;-48
2023/07/11 05:04:33;;;;;;;6.60;2.70;;;22.00;99.90;;;;;;5071740;28;20209;-49
2023/07/11 05:07:00;;;;;;;6.05;2.60;;;21.90;99.90;;;;;;5072231;28;20170;-50
2023/07/11 05:09:28;;;;;;;4.55;2.40;;;22.00;99.90;;;;;;5072348;28;20177;-50
2023/07/11 05:11:53;;;;;;;5.88;2.47;;;22.00;99.90;;;;;;5072175;28;20177;-50
2023/07/11 05:14:19;;;;;;;5.35;2.85;;;22.10;99.90;;;;;;5071887;28;20556;-50
2023/07/11 05:16:44;;;;;;;9.15;3.08;;;22.30;99.90;;;;;;5083437;28;20203;-46
2023/07/11 05:19:10;;;;;;;8.30;3.17;;;22.30;99.90;;;;;;5090333;28;20202;-47
2023/07/11 05:21:36;;;;;;;4.75;3.20;;;22.30;99.90;;;;;;5090275;28;20534;-49
2023/07/11 05:24:02;;;;;;;5.07;2.60;;;22.50;99.90;;;;;;5090417;28;20204;-49
2023/07/11 05:26:28;;;;;;;5.03;2.38;;;22.50;99.90;;;;;;5090577;28;20188;-50
2023/07/11 05:28:54;;;;;;;3.85;2.65;;;22.40;99.90;;;;;;5090610;28;20180;-50
2023/07/11 05:31:19;;;;;;;5.45;2.80;;;22.60;99.90;;;;;;5089874;28;20165;-50
2023/07/11 05:33:45;;;;;;;3.60;2.35;;;22.60;99.90;;;;;;5089444;28;20177;-50
2023/07/11 05:36:33;;;;;;;4.82;2.55;;;22.60;99.90;;;;;;5090100;28;20162;-50
2023/07/11 05:39:04;;;;;;;6.38;2.65;;;22.70;99.90;;;;;;5090599;28;20181;-50
2023/07/11 05:41:32;;;;;;;4.55;2.28;;;22.90;99.90;;;;;;5090553;28;20192;-50
2023/07/11 05:43:57;;;;;;;4.07;2.33;;;22.90;99.90;;;;;;5090712;28;20209;-51
2023/07/11 05:46:24;;;;;;;5.15;3.10;;;23.10;99.90;;;;;;5090030;28;20172;-51
2023/07/11 05:48:50;;;;;;;4.55;2.80;;;23.00;99.90;;;;;;5089735;28;20173;-50
2023/07/11 05:51:16;;;;;;;4.43;3.00;;;23.00;99.90;;;;;;5090011;28;20172;-49
2023/07/11 05:53:42;;;;;;;3.67;2.95;;;23.10;99.90;;;;;;5090181;28;20169;-50
2023/07/11 05:56:08;;;;;;;4.45;2.97;;;23.10;99.90;;;;;;5071738;28;20202;-50
2023/07/11 05:58:34;;;;;;;7.55;2.53;;;23.10;99.90;;;;;;5090036;28;20165;-51
2023/07/11 06:01:03;;;;;;;5.18;3.15;;;23.10;99.90;;;;;;5090569;28;20588;-50
2023/07/11 06:03:30;;;;;;;4.43;2.70;;;23.20;99.90;;;;;;5090216;28;20204;-47
2023/07/11 06:06:02;;;;;;;4.75;2.58;;;23.30;99.90;;;;;;5090346;28;20200;-48
2023/07/11 06:08:29;;;;;;;4.25;2.78;;;23.20;99.90;;;;;;5089933;28;20728;-51
2023/07/11 06:11:00;;;;;;;4.88;2.67;;;23.10;99.90;;;;;;5089386;28;20625;-52
2023/07/11 06:13:27;;;;;;;3.97;2.80;;;23.20;99.90;;;;;;5089842;28;21046;-51
2023/07/11 06:16:04;;;;;;;4.00;2.50;;;23.30;99.90;;;;;;5090209;28;20660;-53
2023/07/11 06:18:32;;;;;;;6.05;2.63;;;23.40;99.90;;;;;;5094160;28;20173;-55
2023/07/11 06:20:58;;;;;;;5.32;2.60;;;23.50;99.90;;;;;;5093903;28;20249;-50
2023/07/11 06:23:23;;;;;;;5.28;2.97;;;23.30;99.90;;;;;;5093374;28;20616;-51
2023/07/11 06:25:49;;;;;;;7.70;2.88;;;23.40;99.90;;;;;;5093662;28;20692;-52
2023/07/11 06:28:15;;;;;;;4.65;2.63;;;23.30;99.90;;;;;;5093860;28;20203;-49
2023/07/11 06:30:42;;;;;;;5.40;2.92;;;23.50;99.90;;;;;;5093643;28;20203;-52
2023/07/11 06:33:11;;;;;;;3.67;2.45;;;23.50;99.90;;;;;;5093581;28;20288;-54
2023/07/11 06:35:40;;;;;;;10.52;2.70;;;23.50;99.90;;;;;;5093673;28;20188;-53
2023/07/11 06:38:07;;;;;;;5.00;2.75;;;23.60;99.90;;;;;;5093324;28;20181;-52
2023/07/11 06:40:33;;;;;;;5.15;2.95;;;23.80;99.90;;;;;;5093180;28;20168;-51
2023/07/11 06:42:58;;;;;;;4.10;2.80;;;24.00;99.90;;;;;;5093565;28;20165;-52
2023/07/11 06:45:24;;;;;;;7.32;3.05;;;24.10;99.90;;;;;;5093350;28;20472;-52
2023/07/11 06:47:50;;;;;;;3.97;2.70;;;24.20;99.90;;;;;;5093236;28;20161;-54
2023/07/11 06:50:15;;;;;;;4.57;2.80;;;24.40;99.90;;;;;;5093137;28;20180;-52
2023/07/11 06:52:41;;;;;;;4.60;3.00;;;24.30;99.90;;;;;;5093189;28;20176;-51
2023/07/11 06:55:07;;;;;;;4.90;2.78;;;24.30;99.90;;;;;;5092932;28;20249;-55
2023/07/11 06:57:33;;;;;;;6.60;2.75;;;24.30;99.90;;;;;;5089192;28;20166;-57
2023/07/11 06:59:59;;;;;;;7.68;2.95;;;24.50;99.90;;;;;;5073072;28;20245;-52
2023/07/11 07:02:25;;;;;;;4.43;2.78;;;24.70;99.90;;;;;;5072657;28;20656;-53
2023/07/11 07:04:50;;;;;;;3.92;2.70;;;24.80;99.90;;;;;;5072576;28;20213;-53
2023/07/11 07:07:16;;;;;;;5.72;3.47;;;24.90;99.90;;;;;;5072541;28;20248;-51
2023/07/11 07:09:41;;;;;;;8.40;2.60;;;24.90;99.90;;;;;;5053959;28;20210;-52
2023/07/11 07:12:07;;;;;;;6.53;3.20;;;24.90;99.90;;;;;;5072015;28;20556;-52
2023/07/11 07:14:32;;;;;;;5.85;3.05;;;24.90;99.90;;;;;;5071915;28;20195;-52
2023/07/11 07:16:58;;;;;;;5.43;2.60;;;25.10;99.90;;;;;;5072342;28;20169;-52
2023/07/11 07:19:23;;;;;;;6.97;3.55;;;25.10;99.90;;;;;;5071849;28;20280;-51
2023/07/11 07:21:49;;;;;;;6.80;3.10;;;25.30;99.90;;;;;;5071869;28;20174;-51
2023/07/11 07:24:15;;;;;;;6.18;3.45;;;25.40;99.90;;;;;;5071760;28;20284;-51
2023/07/11 07:26:41;;;;;;;10.60;4.10;;;25.70;99.90;;;;;;5053992;28;20170;-51
2023/07/11 07:29:07;;;;;;;6.95;3.40;;;25.50;99.90;;;;;;5071048;28;20188;-52
2023/07/11 07:31:33;;;;;;;8.60;3.78;;;25.50;99.90;;;;;;5071908;28;20307;-51
2023/07/11 07:33:58;;;;;;;4.55;3.22;;;25.50;99.90;;;;;;5072217;28;20169;-50
2023/07/11 07:36:24;;;;;;;8.70;3.72;;;25.70;99.90;;;;;;5072184;28;20170;-51
2023/07/11 07:38:49;;;;;;;5.07;3.42;;;25.60;99.90;;;;;;5071922;28;20639;-51
2023/07/11 07:41:15;;;;;;;6.63;3.20;;;25.90;99.90;;;;;;5071767;28;20192;-52
2023/07/11 07:43:42;;;;;;;5.50;3.33;;;25.80;99.90;;;;;;5071650;28;20212;-51
2023/07/11 07:46:13;;;;;;;10.35;3.83;;;26.00;99.90;;;;;;5071954;28;20165;-51
2023/07/11 07:48:39;;;;;;;5.90;3.50;;;26.10;99.90;;;;;;5071721;28;20193;-51
2023/07/11 07:51:11;;;;;;;6.47;3.40;;;26.20;99.90;;;;;;5071700;28;20192;-51
2023/07/11 07:53:37;;;;;;;8.43;3.30;;;26.30;99.90;;;;;;5071273;28;20628;-52
2023/07/11 07:56:03;;;;;;;7.88;3.10;;;26.50;99.90;;;;;;5071719;28;20324;-51
2023/07/11 07:58:29;;;;;;;7.28;3.47;;;26.50;99.90;;;;;;5072027;28;20263;-52
2023/07/11 08:00:55;;;;;;;5.32;2.83;;;26.60;99.90;;;;;;5071956;28;20641;-51
2023/07/11 08:03:21;;;;;;;5.60;2.75;;;26.40;99.90;;;;;;5076005;28;20291;-51
2023/07/11 08:05:46;;;;;;;6.45;3.05;;;26.30;99.90;;;;;;5091477;28;20704;-51
2023/07/11 08:08:12;;;;;;;12.75;3.30;;;26.20;99.90;;;;;;5091446;28;20169;-52
2023/07/11 08:10:37;;;;;;;8.85;3.63;;;26.00;99.90;;;;;;5091392;28;20238;-52
2023/07/11 08:13:03;;;;;;;8.75;3.83;;;26.10;99.90;;;;;;5091251;28;20157;-52
2023/07/11 08:15:28;;;;;;;4.68;2.60;;;26.30;99.90;;;;;;5091803;28;20161;-52
2023/07/11 08:17:54;;;;;;;8.43;3.35;;;26.50;99.90;;;;;;5091374;28;20192;-51
2023/07/11 08:20:20;;;;;;;7.57;3.00;;;26.50;99.90;;;;;;5091574;28;20165;-52
2023/07/11 08:22:45;;;;;;;6.00;3.22;;;26.30;99.90;;;;;;5090797;28;20531;-52
2023/07/11 08:25:11;;;;;;;4.25;2.78;;;26.50;99.90;;;;;;5072746;28;20213;-51
2023/07/11 08:27:37;;;;;;;5.40;3.33;;;26.70;99.90;;;;;;5091100;28;20641;-51
2023/07/11 08:30:03;;;;;;;5.47;2.67;;;27.10;99.90;;;;;;5091293;28;20168;-52
2023/07/11 08:32:29;;;;;;;8.50;2.70;;;26.90;99.90;;;;;;5090978;28;20168;-51
2023/07/11 08:34:55;;;;;;;6.05;2.42;;;27.80;99.90;;;;;;5072450;28;20164;-52
2023/07/11 08:37:20;;;;;;;6.15;2.72;;;27.50;99.90;;;;;;5091202;28;20169;-52
2023/07/11 08:39:46;;;;;;;3.53;2.70;;;27.50;99.90;;;;;;5090615;28;20165;-52
2023/07/11 08:42:31;;;;;;;8.98;2.80;;;27.60;99.90;;;;;;5090778;28;20167;-52
2023/07/11 08:45:23;;;;;;;6.57;3.00;;;27.60;99.90;;;;;;5072984;28;20366;-51
2023/07/11 08:48:00;;;;;;;5.93;2.50;;;27.60;99.90;;;;;;5090783;28;20218;-52
2023/07/11 08:50:36;;;;;;;8.23;3.00;;;27.80;99.90;;;;;;5091061;28;20196;-51
2023/07/11 08:53:12;;;;;;;4.32;2.75;;;27.80;99.90;;;;;;5090457;28;20205;-52
2023/07/11 08:55:47;;;;;;;8.73;2.90;;;28.10;99.90;;;;;;5090325;28;20260;-52
2023/07/11 08:58:29;;;;;;;5.28;2.90;;;28.10;99.90;;;;;;5072317;28;20179;-52
2023/07/11 09:00:56;;;;;;;5.57;2.90;;;28.20;99.90;;;;;;5090379;28;20165;-51
2023/07/11 09:03:32;;;;;;;7.80;3.10;;;28.20;99.90;;;;;;5084903;28;20189;-52
2023/07/11 09:06:04;;;;;;;7.43;3.00;;;28.60;99.90;;;;;;5079408;28;20661;-52
2023/07/11 09:08:30;;;;;;;10.75;2.97;;;28.90;99.90;;;;;;5063861;28;20165;-51
2023/07/11 09:11:27;;;;;;;6.82;3.00;;;29.10;99.90;;;;;;5090619;28;20212;-51
2023/07/11 09:14:11;;;;;;;6.97;3.10;;;29.10;99.90;;;;;;5090199;28;20843;-51
2023/07/11 09:17:02;;;;;;;7.32;3.05;;;28.70;99.90;;;;;;5072239;28;20200;-51
2023/07/11 09:19:55;;;;;;;9.25;2.90;;;28.80;99.90;;;;;;5090732;28;20165;-50
2023/07/11 09:22:50;;;;;;;19.27;6.22;;;29.20;99.90;;;;;;5090369;28;20165;-50
2023/07/11 09:25:15;;;;;;;7.93;2.97;;;29.50;99.90;;;;;;5090268;28;20560;-50
2023/07/11 09:27:56;;;;;;;5.60;3.05;;;29.60;99.90;;;;;;5090094;28;20161;-51
2023/07/11 09:30:32;;;;;;;6.07;2.72;;;29.40;99.90;;;;;;5089896;28;20555;-51
2023/07/11 09:33:14;;;;;;;9.30;2.88;;;29.20;99.90;;;;;;5090445;28;20504;-51
2023/07/11 09:35:43;;;;;;;4.10;2.65;;;29.30;99.90;;;;;;5090100;28;20161;-52
2023/07/11 09:38:34;;;;;;;6.03;2.70;;;29.20;99.90;;;;;;5089865;28;20181;-52
2023/07/11 09:41:11;;;;;;;5.32;2.83;;;29.40;99.90;;;;;;5089831;28;20684;-51
2023/07/11 09:43:36;;;;;;;4.55;2.90;;;29.40;99.90;;;;;;5089910;28;20192;-51
2023/07/11 09:46:02;;;;;;;9.45;2.75;;;29.70;99.90;;;;;;5090002;28;20234;-51
2023/07/11 09:48:34;;;;;;;3.28;2.80;;;29.40;99.90;;;;;;5090393;28;20167;-51
2023/07/11 09:51:00;;;;;;;3.75;3.10;;;29.70;99.90;;;;;;5088923;28;20172;-51
2023/07/11 09:53:28;;;;;;;7.43;3.55;;;29.90;99.50;;;;;;5090498;28;20184;-52
2023/07/11 09:56:02;;;;;;;5.20;2.83;;;29.90;98.90;;;;;;5090165;28;20573;-51
2023/07/11 09:58:31;;;;;;;5.93;3.63;;;29.90;98.90;;;;;;5090301;28;20644;-51
2023/07/11 10:01:03;;;;;;;10.45;3.65;;;30.20;97.40;;;;;;5090221;28;20176;-51
2023/07/11 10:03:34;;;;;;;7.40;3.78;;;30.30;97.70;;;;;;5089838;28;20207;-51
2023/07/11 10:06:00;;;;;;;8.57;4.05;;;30.50;98.70;;;;;;5090463;28;20621;-51
2023/07/11 10:08:40;;;;;;;10.68;4.55;;;30.40;96.70;;;;;;5072156;28;20727;-51
2023/07/11 10:11:11;;;;;;;10.02;6.20;;;30.20;97.30;;;;;;5089008;28;20228;-52
2023/07/11 10:13:40;;;;;;;11.93;6.65;;;30.30;96.60;;;;;;5089640;28;20663;-51
2023/07/11 10:16:05;;;;;;;9.07;6.15;;;30.40;94.20;;;;;;5089196;28;20172;-51
2023/07/11 10:18:34;;;;;;;11.52;6.32;;;30.40;95.90;;;;;;5089460;28;20164;-51
2023/07/11 10:21:15;;;;;;;7.43;5.57;;;30.30;97.20;;;;;;5089794;28;20191;-51
2023/07/11 10:23:50;;;;;;;8.25;5.80;;;30.30;96.80;;;;;;5089342;28;20204;-51
2023/07/11 10:26:28;;;;;;;6.75;4.50;;;30.60;95.30;;;;;;5089313;28;20156;-52
2023/07/11 10:29:12;;;;;;;7.85;5.25;;;30.50;95.10;;;;;;5089395;28;20509;-52
2023/07/11 10:31:44;;;;;;;8.55;5.50;;;30.80;96.30;;;;;;5089355;28;20169;-52
2023/07/11 10:34:34;;;;;;;7.45;5.95;;;30.80;95.40;;;;;;5089373;28;20608;-52
2023/07/11 10:37:12;;;;;;;11.20;6.68;;;30.80;95.40;;;;;;5089370;28;20518;-51
2023/07/11 10:39:51;;;;;;;10.35;6.07;;;30.70;96.00;;;;;;5089677;28;20172;-52
2023/07/11 10:42:46;;;;;;;8.82;6.35;;;31.00;94.40;;;;;;5089417;28;20176;-52
2023/07/11 10:45:19;;;;;;;11.80;6.78;;;31.20;95.90;;;;;;5079804;28;20213;-52
2023/07/11 10:48:05;;;;;;;10.68;6.38;;;31.10;94.90;;;;;;5089244;28;20165;-52
2023/07/11 10:50:54;;;;;;;6.90;6.15;;;30.90;95.10;;;;;;5089020;28;20539;-51
2023/07/11 10:53:35;;;;;;;8.80;4.85;;;31.30;94.20;;;;;;5089423;28;20751;-51
2023/07/11 10:56:07;;;;;;;7.50;4.90;;;31.20;94.30;;;;;;5089432;28;20172;-51
2023/07/11 10:58:33;;;;;;;7.28;5.05;;;31.00;93.50;;;;;;5090020;28;20196;-51
2023/07/11 11:01:11;;;;;;;6.80;4.93;;;31.00;93.40;;;;;;5090131;28;20291;-51
2023/07/11 11:03:46;;;;;;;7.28;4.60;;;31.00;94.10;;;;;;5092132;28;20279;-52
2023/07/11 11:06:51;;;;;;;8.32;5.40;;;31.20;93.30;;;;;;5093005;28;20203;-51
2023/07/11 11:09:38;;;;;;;5.25;4.75;;;31.30;93.00;;;;;;5092654;28;20638;-51
2023/07/11 11:12:24;;;;;;;5.03;4.20;;;31.30;92.90;;;;;;5092647;28;20538;-52
2023/07/11 11:15:00;;;;;;;5.22;3.78;;;31.50;92.50;;;;;;5092491;28;20160;-52
2023/07/11 11:17:48;;;;;;;7.80;3.40;;;31.70;92.10;;;;;;5093171;28;20172;-52
2023/07/11 11:20:27;;;;;;;6.63;3.30;;;31.70;92.70;;;;;;5091988;28;20532;-51
2023/07/11 11:23:15;;;;;;;5.88;3.30;;;31.80;92.50;;;;;;5092610;28;20161;-52
2023/07/11 11:25:47;;;;;;;7.53;3.15;;;31.90;92.50;;;;;;5074473;28;20189;-51
2023/07/11 11:28:26;;;;;;;4.22;3.20;;;31.90;92.10;;;;;;5092619;28;20244;-51
2023/07/11 11:31:14;;;;;;;5.90;3.40;;;31.80;92.10;;;;;;5092399;28;20179;-52
2023/07/11 11:34:06;;;;;;;5.47;3.20;;;31.70;91.80;;;;;;5092330;28;20196;-51
2023/07/11 11:37:03;;;;;;;7.07;3.22;;;31.80;92.80;;;;;;5092548;28;20167;-51
2023/07/11 11:39:28;;;;;;;5.65;3.38;;;31.60;91.30;;;;;;5091959;28;20176;-51
2023/07/11 11:42:02;;;;;;;8.50;4.20;;;31.80;91.50;;;;;;5092311;28;20505;-51
2023/07/11 11:44:53;;;;;;;5.28;3.17;;;32.20;91.30;;;;;;5091619;28;20208;-51
2023/07/11 11:47:20;;;;;;;10.32;3.28;;;32.50;91.30;;;;;;5092088;28;20173;-51
2023/07/11 11:49:48;;;;;;;5.80;3.42;;;32.30;91.10;;;;;;5073715;28;20226;-51
2023/07/11 11:52:14;;;;;;;3.80;3.10;;;32.50;91.50;;;;;;5091698;28;20153;-51
2023/07/11 11:54:45;;;;;;;5.80;3.50;;;32.40;90.10;;;;;;5091712;28;20179;-51
2023/07/11 11:57:21;;;;;;;5.57;3.30;;;32.40;90.10;;;;;;5092290;28;20204;-52
2023/07/11 11:59:47;;;;;;;3.97;3.17;;;32.20;90.20;;;;;;5091727;28;20643;-52
2023/07/11 12:02:17;;;;;;;7.32;3.20;;;32.30;89.60;;;;;;5091767;28;20180;-51
2023/07/11 12:05:04;;;;;;;5.00;3.40;;;32.30;89.90;;;;;;5090646;28;20203;-51
2023/07/11 12:07:36;;;;;;;7.00;3.20;;;32.00;89.50;;;;;;5091409;28;20255;-51
2023/07/11 12:10:09;;;;;;;8.13;3.45;;;31.80;89.40;;;;;;5091408;28;20200;-51
2023/07/11 12:12:34;;;;;;;9.50;3.40;;;32.20;89.70;;;;;;5091765;28;20172;-50
2023/07/11 12:15:11;;;;;;;5.90;3.58;;;32.20;90.00;;;;;;5090386;28;20169;-50
2023/07/11 12:17:38;;;;;;;4.97;3.40;;;32.30;90.20;;;;;;5091258;28;20176;-50
2023/07/11 12:20:10;;;;;;;7.82;3.70;;;32.50;89.10;;;;;;5091341;28;20180;-50
2023/07/11 12:22:39;;;;;;;4.57;3.47;;;32.60;88.40;;;;;;5091340;28;20202;-51
2023/07/11 12:25:17;;;;;;;6.60;3.20;;;32.80;89.10;;;;;;5090953;28;20746;-51
2023/07/11 12:27:45;;;;;;;8.70;3.35;;;33.10;88.70;;;;;;5091089;28;20173;-50
2023/07/11 12:30:13;;;;;;;6.15;3.60;;;33.00;88.90;;;;;;5091411;28;20168;-51
2023/07/11 12:33:14;;;;;;;5.90;3.33;;;33.30;89.80;;;;;;5091308;28;20256;-50
2023/07/11 12:35:41;;;;;;;7.05;3.47;;;33.30;86.60;;;;;;5084073;28;20571;-51
2023/07/11 12:38:13;;;;;;;4.75;3.40;;;33.10;86.60;;;;;;5091018;28;20510;-51
2023/07/11 12:40:57;;;;;;;5.45;2.97;;;33.20;86.20;;;;;;5091102;28;20160;-50
2023/07/11 12:43:30;;;;;;;5.28;3.17;;;33.10;87.60;;;;;;5091045;28;20193;-51
2023/07/11 12:45:58;;;;;;;9.77;3.72;;;33.30;87.30;;;;;;5091644;28;20547;-51
2023/07/11 12:48:27;;;;;;;5.72;3.85;;;33.40;85.50;;;;;;5090954;28;20233;-50
2023/07/11 12:50:56;;;;;;;7.13;3.20;;;33.50;86.70;;;;;;5091226;28;20233;-51
2023/07/11 12:53:21;;;;;;;4.57;3.45;;;33.50;85.50;;;;;;5091193;28;20627;-51
2023/07/11 12:55:53;;;;;;;3.78;3.20;;;33.50;85.30;;;;;;5091076;28;20164;-51
2023/07/11 12:58:30;;;;;;;5.35;3.30;;;33.70;84.80;;;;;;5090878;28;20168;-50